createdAt,value
2018-05-02T00:00:25.341Z,101217.06
2018-05-02T00:02:52.205Z,101212.23
2018-05-02T00:05:19.076Z,101218.38
2018-05-02T00:07:45.957Z,101221.42
2018-05-02T00:10:12.845Z,101215.73
2018-05-02T00:12:39.721Z,101216.16
2018-05-02T00:15:06.604Z,101216.19
2018-05-02T00:17:33.472Z,101223.17
2018-05-02T00:20:00.361Z,101230.17
2018-05-02T00:22:27.233Z,101224.95
2018-05-02T00:27:27.724Z,101226.66
2018-05-02T00:29:54.644Z,101225.38
2018-05-02T00:32:21.505Z,101212.29
2018-05-02T00:34:48.380Z,101209.22
2018-05-02T00:37:15.267Z,101206.13
2018-05-02T00:39:42.162Z,101199.53
2018-05-02T00:42:09.028Z,101199.02
2018-05-02T00:44:35.892Z,101195.86
2018-05-02T00:47:02.791Z,101191.89
2018-05-02T00:49:29.673Z,101191.84
2018-05-02T00:51:56.553Z,101183.97
2018-05-02T00:54:23.422Z,101178.05
2018-05-02T00:56:50.309Z,101176.21
2018-05-02T00:59:17.179Z,101170.39
2018-05-02T01:01:44.347Z,101173.45
2018-05-02T01:04:11.232Z,101181.67
2018-05-02T01:06:38.112Z,101179.03
2018-05-02T01:09:05.020Z,101179.73
2018-05-02T01:11:31.904Z,101177.66
2018-05-02T01:13:58.804Z,101181.57
2018-05-02T01:16:25.684Z,101176.63
2018-05-02T01:18:52.559Z,101173.53
2018-05-02T01:21:19.442Z,101183.83
2018-05-02T01:23:46.311Z,101171.09
2018-05-02T01:26:13.215Z,101179.37
2018-05-02T01:28:40.098Z,101184.91
2018-05-02T01:31:06.985Z,101176.11
2018-05-02T01:33:33.848Z,101184.92
2018-05-02T01:36:00.726Z,101179.27
2018-05-02T01:38:27.598Z,101180.26
2018-05-02T01:40:54.464Z,101181.59
2018-05-02T01:43:21.332Z,101179.77
2018-05-02T01:45:48.199Z,101177.11
2018-05-02T01:48:15.088Z,101180.73
2018-05-02T01:50:41.976Z,101177.55
2018-05-02T01:53:08.860Z,101188.66
2018-05-02T01:55:35.736Z,101186.80
2018-05-02T01:58:02.612Z,101187.27
2018-05-02T02:00:29.504Z,101182.63
2018-05-02T02:02:56.374Z,101181.84
2018-05-02T02:05:23.257Z,101180.08
2018-05-02T02:07:50.152Z,101183.52
2018-05-02T02:10:17.081Z,101182.23
2018-05-02T02:12:43.957Z,101190.89
2018-05-02T02:15:10.847Z,101189.64
2018-05-02T02:17:37.716Z,101194.78
2018-05-02T02:20:04.577Z,101198.63
2018-05-02T02:22:31.458Z,101195.11
2018-05-02T02:24:58.338Z,101192.77
2018-05-02T02:27:25.213Z,101195.31
2018-05-02T02:29:52.089Z,101194.47
2018-05-02T02:32:18.969Z,101204.86
2018-05-02T02:34:45.832Z,101202.16
2018-05-02T02:37:12.710Z,101203.86
2018-05-02T02:39:39.573Z,101195.12
2018-05-02T02:42:06.456Z,101199.95
2018-05-02T02:44:33.337Z,101201.76
2018-05-02T02:47:00.212Z,101198.13
2018-05-02T02:49:27.084Z,101198.97
2018-05-02T02:51:53.989Z,101192.72
2018-05-02T02:54:20.857Z,101195.92
2018-05-02T02:56:47.755Z,101199.73
2018-05-02T02:59:14.625Z,101192.41
2018-05-02T03:01:41.512Z,101189.02
2018-05-02T03:04:08.403Z,101186.73
2018-05-02T03:06:35.284Z,101193.24
2018-05-02T03:09:02.200Z,101188.38
2018-05-02T03:11:29.087Z,101192.53
2018-05-02T03:13:55.939Z,101199.06
2018-05-02T03:16:22.836Z,101200.75
2018-05-02T03:18:49.712Z,101204.58
2018-05-02T03:21:16.592Z,101212.45
2018-05-02T03:23:43.465Z,101218.36
2018-05-02T03:26:10.341Z,101212.19
2018-05-02T03:28:37.211Z,101218.17
2018-05-02T03:31:04.104Z,101216.08
2018-05-02T03:33:30.999Z,101206.69
2018-05-02T03:35:57.868Z,101213.14
2018-05-02T03:38:24.770Z,101215.64
2018-05-02T03:40:51.642Z,101217.53
2018-05-02T03:43:18.523Z,101222.92
2018-05-02T03:45:45.392Z,101222.38
2018-05-02T03:48:12.272Z,101219.66
2018-05-02T03:50:39.174Z,101228.31
2018-05-02T03:53:06.130Z,101240.09
2018-05-02T03:55:32.953Z,101232.88
2018-05-02T03:57:59.856Z,101239.36
2018-05-02T04:01:41.047Z,101240.74
2018-05-02T04:05:22.385Z,101242.72
2018-05-02T04:07:49.285Z,101245.09
2018-05-02T04:10:16.168Z,101242.01
2018-05-02T04:12:43.089Z,101238.02
2018-05-02T04:15:09.965Z,101234.19
2018-05-02T04:17:36.852Z,101238.86
2018-05-02T04:20:03.733Z,101241.48
2018-05-02T04:22:30.625Z,101246.92
2018-05-02T04:24:57.507Z,101245.81
2018-05-02T04:27:24.404Z,101242.97
2018-05-02T04:29:51.288Z,101252.82
2018-05-02T04:32:18.161Z,101245.95
2018-05-02T04:34:45.060Z,101250.34
2018-05-02T04:37:11.935Z,101253.50
2018-05-02T04:39:38.827Z,101253.95
2018-05-02T04:42:05.707Z,101256.17
2018-05-02T04:44:32.666Z,101259.27
2018-05-02T04:46:59.531Z,101266.41
2018-05-02T04:49:26.422Z,101265.08
2018-05-02T04:51:53.288Z,101264.22
2018-05-02T04:54:20.190Z,101267.39
2018-05-02T04:56:47.078Z,101274.88
2018-05-02T04:59:13.961Z,101273.69
2018-05-02T05:01:40.836Z,101277.25
2018-05-02T05:04:07.715Z,101272.94
2018-05-02T05:09:40.664Z,101274.88
2018-05-02T05:12:06.405Z,101271.52
2018-05-02T05:14:32.157Z,101275.94
2018-05-02T05:16:57.893Z,101277.45
2018-05-02T05:19:23.651Z,101269.75
2018-05-02T05:21:49.392Z,101272.45
2018-05-02T05:24:15.145Z,101272.75
2018-05-02T05:26:40.893Z,101275.12
2018-05-02T05:29:06.649Z,101269.59
2018-05-02T05:31:32.390Z,101284.06
2018-05-02T05:33:58.136Z,101286.36
2018-05-02T05:36:23.864Z,101289.02
2018-05-02T05:38:49.620Z,101290.36
2018-05-02T05:41:15.352Z,101286.42
2018-05-02T05:43:41.147Z,101285.58
2018-05-02T05:46:06.822Z,101288.66
2018-05-02T05:48:32.566Z,101284.30
2018-05-02T05:50:58.313Z,101282.11
2018-05-02T05:53:24.061Z,101283.86
2018-05-02T05:55:49.791Z,101291.78
2018-05-02T05:58:15.554Z,101291.30
2018-05-02T06:00:41.339Z,101285.48
2018-05-02T06:03:07.131Z,101292.52
2018-05-02T06:05:32.879Z,101291.59
2018-05-02T06:07:58.621Z,101292.45
2018-05-02T06:10:24.354Z,101293.31
2018-05-02T06:12:50.145Z,101288.27
2018-05-02T06:15:15.832Z,101286.30
2018-05-02T06:17:41.573Z,101283.78
2018-05-02T06:20:07.336Z,101283.15
2018-05-02T06:22:33.080Z,101294.87
2018-05-02T06:24:58.850Z,101295.68
2018-05-02T06:27:24.593Z,101296.33
2018-05-02T06:29:50.329Z,101295.50
2018-05-02T06:32:16.058Z,101293.95
2018-05-02T06:34:41.784Z,101299.61
2018-05-02T06:37:07.514Z,101298.00
2018-05-02T06:39:33.266Z,101303.33
2018-05-02T06:41:59.016Z,101299.09
2018-05-02T06:44:24.771Z,101291.03
2018-05-02T06:46:50.513Z,101300.52
2018-05-02T06:49:16.262Z,101289.78
2018-05-02T06:51:41.992Z,101291.63
2018-05-02T06:54:07.733Z,101290.44
2018-05-02T06:56:33.476Z,101287.13
2018-05-02T06:58:59.231Z,101288.50
2018-05-02T07:01:24.982Z,101293.42
2018-05-02T07:03:50.736Z,101281.92
2018-05-02T07:06:16.477Z,101285.91
2018-05-02T07:08:42.217Z,101284.93
2018-05-02T07:11:07.965Z,101287.78
2018-05-02T07:13:33.783Z,101283.53
2018-05-02T07:15:59.473Z,101285.95
2018-05-02T07:18:25.205Z,101283.58
2018-05-02T07:20:50.960Z,101283.99
2018-05-02T07:23:16.692Z,101276.81
2018-05-02T07:25:42.420Z,101278.28
2018-05-02T07:28:08.162Z,101281.08
2018-05-02T07:30:33.930Z,101272.08
2018-05-02T07:32:59.793Z,101273.21
2018-05-02T07:35:25.423Z,101281.64
2018-05-02T07:37:51.173Z,101274.50
2018-05-02T07:40:17.312Z,101269.48
2018-05-02T07:42:43.048Z,101276.25
2018-05-02T07:45:08.785Z,101285.86
2018-05-02T07:47:34.558Z,101282.48
2018-05-02T07:50:00.305Z,101284.34
2018-05-02T07:52:26.045Z,101274.70
2018-05-02T07:54:51.776Z,101276.62
2018-05-02T07:57:17.520Z,101279.29
2018-05-02T07:59:43.276Z,101277.10
2018-05-02T08:02:09.004Z,101276.01
2018-05-02T08:04:34.748Z,101283.31
2018-05-02T08:07:00.480Z,101274.37
2018-05-02T08:09:26.237Z,101281.39
2018-05-02T08:11:51.976Z,101278.56
2018-05-02T08:14:17.687Z,101277.93
2018-05-02T08:16:43.441Z,101272.92
2018-05-02T08:19:09.177Z,101271.30
2018-05-02T08:21:34.961Z,101270.87
2018-05-02T08:24:00.717Z,101277.83
2018-05-02T08:26:26.476Z,101272.41
2018-05-02T08:28:52.213Z,101271.98
2018-05-02T08:31:17.955Z,101269.51
2018-05-02T08:33:43.676Z,101274.66
2018-05-02T08:36:09.428Z,101270.13
2018-05-02T08:38:35.163Z,101269.45
2018-05-02T08:41:00.913Z,101263.48
2018-05-02T08:43:33.511Z,101268.34
2018-05-02T08:45:59.355Z,101263.47
2018-05-02T08:48:25.017Z,101267.39
2018-05-02T08:50:50.777Z,101271.67
2018-05-02T08:53:16.529Z,101270.24
2018-05-02T08:55:42.277Z,101260.63
2018-05-02T08:58:08.045Z,101261.30
2018-05-02T09:00:33.806Z,101263.84
2018-05-02T09:02:59.553Z,101257.09
2018-05-02T09:05:25.298Z,101259.73
2018-05-02T09:07:51.037Z,101257.97
2018-05-02T09:10:16.825Z,101253.07
2018-05-02T09:12:42.552Z,101259.34
2018-05-02T09:15:08.316Z,101250.57
2018-05-02T09:17:34.060Z,101252.49
2018-05-02T09:19:59.798Z,101246.83
2018-05-02T09:22:25.554Z,101245.73
2018-05-02T09:24:51.284Z,101244.11
2018-05-02T09:27:17.026Z,101240.55
2018-05-02T09:29:42.770Z,101235.64
2018-05-02T09:32:08.508Z,101238.26
2018-05-02T09:34:34.231Z,101241.88
2018-05-02T09:36:59.968Z,101237.13
2018-05-02T09:39:25.701Z,101233.75
2018-05-02T09:41:51.446Z,101233.61
2018-05-02T09:44:17.172Z,101228.34
2018-05-02T09:46:42.925Z,101229.80
2018-05-02T09:49:08.648Z,101227.42
2018-05-02T09:51:34.401Z,101218.92
2018-05-02T09:54:00.128Z,101211.56
2018-05-02T09:56:25.876Z,101209.44
2018-05-02T09:58:51.616Z,101203.24
2018-05-02T10:01:17.361Z,101210.31
2018-05-02T10:03:43.109Z,101205.09
2018-05-02T10:06:08.852Z,101203.26
2018-05-02T10:08:34.590Z,101210.02
2018-05-02T10:11:00.342Z,101212.06
2018-05-02T10:13:26.075Z,101202.22
2018-05-02T10:15:51.826Z,101205.25
2018-05-02T10:18:17.564Z,101203.10
2018-05-02T10:20:43.304Z,101203.67
2018-05-02T10:23:09.045Z,101198.58
2018-05-02T10:25:34.785Z,101199.09
2018-05-02T10:28:00.519Z,101200.02
2018-05-02T10:30:26.265Z,101198.45
2018-05-02T10:32:52.016Z,101204.23
2018-05-02T10:35:17.762Z,101195.67
2018-05-02T10:37:43.526Z,101194.97
2018-05-02T10:40:09.271Z,101191.87
2018-05-02T10:42:35.026Z,101177.87
2018-05-02T10:45:00.760Z,101184.14
2018-05-02T10:47:26.506Z,101170.16
2018-05-02T10:49:52.245Z,101178.70
2018-05-02T10:52:18.006Z,101173.25
2018-05-02T10:54:43.740Z,101178.99
2018-05-02T10:57:09.488Z,101171.36
2018-05-02T10:59:35.226Z,101168.98
2018-05-02T11:02:00.964Z,101173.80
2018-05-02T11:04:26.713Z,101180.48
2018-05-02T11:06:52.452Z,101165.93
2018-05-02T11:09:18.188Z,101166.73
2018-05-02T11:11:43.928Z,101165.06
2018-05-02T11:14:09.660Z,101173.25
2018-05-02T11:16:35.419Z,101165.54
2018-05-02T11:19:01.170Z,101161.96
2018-05-02T11:21:26.900Z,101160.95
2018-05-02T11:23:52.641Z,101149.89
2018-05-02T11:26:18.397Z,101143.56
2018-05-02T11:28:44.128Z,101135.43
2018-05-02T11:31:09.899Z,101137.61
2018-05-02T11:33:35.660Z,101132.28
2018-05-02T11:36:01.385Z,101133.67
2018-05-02T11:38:27.148Z,101123.84
2018-05-02T11:40:52.890Z,101130.55
2018-05-02T11:43:18.638Z,101133.33
2018-05-02T11:45:44.387Z,101132.84
2018-05-02T11:48:10.130Z,101133.35
2018-05-02T11:50:35.877Z,101130.27
2018-05-02T11:53:01.644Z,101117.62
2018-05-02T11:55:27.383Z,101115.22
2018-05-02T11:57:53.158Z,101121.00
2018-05-02T12:00:18.902Z,101116.56
2018-05-02T12:02:44.639Z,101113.36
2018-05-02T12:05:10.371Z,101105.97
2018-05-02T12:07:36.130Z,101120.30
2018-05-02T12:10:01.880Z,101118.98
2018-05-02T12:12:27.760Z,101122.19
2018-05-02T12:14:53.513Z,101112.04
2018-05-02T12:17:19.285Z,101103.38
2018-05-02T12:19:45.034Z,101099.36
2018-05-02T12:22:10.792Z,101109.76
2018-05-02T12:24:36.520Z,101108.16
2018-05-02T12:27:02.269Z,101100.59
2018-05-02T12:29:28.010Z,101100.78
2018-05-02T12:31:53.748Z,101098.48
2018-05-02T12:34:19.580Z,101105.97
2018-05-02T12:36:45.363Z,101099.63
2018-05-02T12:39:11.181Z,101092.14
2018-05-02T12:41:36.950Z,101088.45
2018-05-02T12:44:02.701Z,101083.77
2018-05-02T12:46:28.439Z,101087.05
2018-05-02T12:48:54.197Z,101077.64
2018-05-02T12:51:19.936Z,101080.28
2018-05-02T12:53:45.676Z,101072.07
2018-05-02T12:56:11.477Z,101071.34
2018-05-02T12:58:37.209Z,101062.47
2018-05-02T13:01:03.015Z,101058.45
2018-05-02T13:03:28.768Z,101059.11
2018-05-02T13:05:54.503Z,101054.88
2018-05-02T13:08:20.291Z,101055.94
2018-05-02T13:10:46.037Z,101057.01
2018-05-02T13:13:11.776Z,101045.12
2018-05-02T13:15:37.589Z,101051.78
2018-05-02T13:18:03.277Z,101052.32
2018-05-02T13:20:36.020Z,101045.66
2018-05-02T13:23:01.751Z,101027.66
2018-05-02T13:25:27.645Z,101035.25
2018-05-02T13:27:53.403Z,101025.12
2018-05-02T13:30:19.140Z,101030.41
2018-05-02T13:32:44.898Z,101027.89
2018-05-02T13:35:10.621Z,101030.09
2018-05-02T13:37:36.377Z,101031.00
2018-05-02T13:40:02.135Z,101017.17
2018-05-02T13:42:27.922Z,101023.33
2018-05-02T13:44:53.663Z,101015.78
2018-05-02T13:47:19.576Z,101005.84
2018-05-02T13:49:45.518Z,100995.80
2018-05-02T13:52:11.508Z,101004.39
2018-05-02T13:54:37.269Z,100996.73
2018-05-02T13:57:03.020Z,100992.63
2018-05-02T13:59:28.956Z,100987.61
2018-05-02T14:01:54.688Z,100980.25
2018-05-02T14:04:20.651Z,100974.48
2018-05-02T14:06:46.384Z,100974.34
2018-05-02T14:09:12.144Z,100966.91
2018-05-02T14:11:38.053Z,100967.27
2018-05-02T14:14:03.912Z,100970.35
2018-05-02T14:16:29.714Z,100970.56
2018-05-02T14:18:55.488Z,100950.30
2018-05-02T14:21:21.227Z,100936.60
2018-05-02T14:23:47.008Z,100941.44
2018-05-02T14:26:12.768Z,100943.86
2018-05-02T14:28:38.530Z,100943.16
2018-05-02T14:31:04.273Z,100955.81
2018-05-02T14:33:30.029Z,100945.68
2018-05-02T14:35:55.752Z,100936.88
2018-05-02T14:38:21.645Z,100938.00
2018-05-02T14:40:47.300Z,100937.54
2018-05-02T14:43:13.028Z,100931.33
2018-05-02T14:45:38.772Z,100916.93
2018-05-02T14:48:04.524Z,100920.20
2018-05-02T14:50:30.256Z,100923.67
2018-05-02T14:52:56.020Z,100924.81
2018-05-02T14:55:21.760Z,100921.45
2018-05-02T14:57:47.529Z,100917.63
2018-05-02T15:00:13.270Z,100915.47
2018-05-02T15:02:39.004Z,100910.30
2018-05-02T15:05:04.757Z,100910.45
2018-05-02T15:07:30.501Z,100903.58
2018-05-02T15:09:56.232Z,100899.38
2018-05-02T15:12:21.968Z,100905.30
2018-05-02T15:14:47.717Z,100908.22
2018-05-02T15:17:13.464Z,100898.45
2018-05-02T15:19:39.205Z,100885.45
2018-05-02T15:22:04.945Z,100895.00
2018-05-02T15:24:30.693Z,100893.74
2018-05-02T15:26:56.442Z,100888.88
2018-05-02T15:29:22.203Z,100890.62
2018-05-02T15:31:47.937Z,100889.30
2018-05-02T15:34:13.708Z,100878.66
2018-05-02T15:36:39.448Z,100882.27
2018-05-02T15:39:05.185Z,100882.27
2018-05-02T15:41:30.904Z,100875.74
2018-05-02T15:43:56.647Z,100875.98
2018-05-02T15:46:22.368Z,100872.24
2018-05-02T15:48:48.119Z,100878.34
2018-05-02T15:51:13.872Z,100879.09
2018-05-02T15:53:39.615Z,100881.08
2018-05-02T15:56:05.433Z,100882.67
2018-05-02T15:58:31.231Z,100872.19
2018-05-02T16:00:56.856Z,100872.58
2018-05-02T16:03:22.606Z,100875.66
2018-05-02T16:05:48.336Z,100878.66
2018-05-02T16:08:14.117Z,100872.90
2018-05-02T16:10:39.847Z,100873.16
2018-05-02T16:13:05.700Z,100871.53
2018-05-02T16:15:31.460Z,100872.39
2018-05-02T16:17:57.189Z,100869.83
2018-05-02T16:20:23.140Z,100875.09
2018-05-02T16:22:48.863Z,100865.38
2018-05-02T16:25:14.675Z,100866.58
2018-05-02T16:27:40.498Z,100864.44
2018-05-02T16:30:06.148Z,100855.80
2018-05-02T16:32:31.874Z,100856.64
2018-05-02T16:34:57.608Z,100853.81
2018-05-02T16:37:23.332Z,100858.70
2018-05-02T16:39:49.089Z,100856.84
2018-05-02T16:42:14.807Z,100853.50
2018-05-02T16:44:40.555Z,100862.06
2018-05-02T16:47:06.297Z,100865.46
2018-05-02T16:49:32.036Z,100863.13
2018-05-02T16:51:57.767Z,100850.83
2018-05-02T16:54:23.509Z,100845.20
2018-05-02T16:56:49.250Z,100852.57
2018-05-02T16:59:14.993Z,100856.27
2018-05-02T17:01:40.717Z,100853.42
2018-05-02T17:04:06.464Z,100852.86
2018-05-02T17:06:32.180Z,100848.20
2018-05-02T17:08:57.929Z,100850.58
2018-05-02T17:11:23.663Z,100857.40
2018-05-02T17:13:49.395Z,100855.10
2018-05-02T17:16:15.140Z,100856.31
2018-05-02T17:18:40.880Z,100849.55
2018-05-02T17:21:06.652Z,100854.16
2018-05-02T17:23:32.417Z,100857.12
2018-05-02T17:25:58.192Z,100864.28
2018-05-02T17:28:23.968Z,100867.80
2018-05-02T17:30:56.745Z,100870.36
2018-05-02T17:33:22.488Z,100865.34
2018-05-02T17:35:48.221Z,100871.78
2018-05-02T17:38:13.952Z,100878.33
2018-05-02T17:40:39.737Z,100881.16
2018-05-02T17:43:05.460Z,100875.81
2018-05-02T17:45:31.200Z,100881.00
2018-05-02T17:47:56.928Z,100886.30
2018-05-02T17:50:22.670Z,100888.33
2018-05-02T17:52:48.403Z,100886.82
2018-05-02T17:55:14.153Z,100892.43
2018-05-02T17:57:39.898Z,100885.53
2018-05-02T18:00:05.652Z,100891.02
2018-05-02T18:02:31.376Z,100892.97
2018-05-02T18:04:57.128Z,100894.27
2018-05-02T18:07:22.844Z,100899.88
2018-05-02T18:09:48.590Z,100902.61
2018-05-02T18:12:14.312Z,100901.46
2018-05-02T18:14:40.041Z,100893.36
2018-05-02T18:17:05.756Z,100900.17
2018-05-02T18:19:31.516Z,100905.37
2018-05-02T18:21:57.257Z,100902.91
2018-05-02T18:24:22.981Z,100910.38
2018-05-02T18:26:48.709Z,100904.25
2018-05-02T18:29:14.439Z,100912.84
2018-05-02T18:31:40.189Z,100914.30
2018-05-02T18:34:05.911Z,100910.53
2018-05-02T18:36:31.746Z,100910.39
2018-05-02T18:38:57.402Z,100914.16
2018-05-02T18:41:23.152Z,100914.02
2018-05-02T18:43:48.885Z,100909.74
2018-05-02T18:46:14.623Z,100910.92
2018-05-02T18:48:40.344Z,100911.44
2018-05-02T18:51:06.073Z,100915.83
2018-05-02T18:53:31.813Z,100912.75
2018-05-02T18:55:57.544Z,100916.25
2018-05-02T18:58:23.311Z,100915.39
2018-05-02T19:00:49.021Z,100914.38
2018-05-02T19:03:14.751Z,100909.89
2018-05-02T19:05:40.496Z,100915.11
2018-05-02T19:08:06.225Z,100915.77
2018-05-02T19:10:31.959Z,100913.80
2018-05-02T19:12:57.681Z,100918.05
2018-05-02T19:15:23.425Z,100911.25
2018-05-02T19:17:55.344Z,100911.14
2018-05-02T19:20:27.272Z,100915.02
2018-05-02T19:22:53.008Z,100916.84
2018-05-02T19:25:24.968Z,100919.01
2018-05-02T19:27:50.709Z,100917.00
2018-05-02T19:30:16.444Z,100915.05
2018-05-02T19:32:48.125Z,100917.02
2018-05-02T19:35:13.872Z,100913.52
2018-05-02T19:37:39.612Z,100915.12
2018-05-02T19:40:11.448Z,100918.12
2018-05-02T19:42:43.326Z,100916.41
2018-05-02T19:45:09.052Z,100921.81
2018-05-02T19:47:34.784Z,100923.80
2018-05-02T19:50:00.512Z,100923.18
2018-05-02T19:52:32.341Z,100925.84
2018-05-02T19:54:58.086Z,100926.73
2018-05-02T19:57:23.828Z,100918.92
2018-05-02T19:59:49.552Z,100918.00
2018-05-02T20:02:21.345Z,100920.26
2018-05-02T20:04:47.378Z,100926.88
2018-05-02T20:07:19.280Z,100922.66
2018-05-02T20:09:51.117Z,100920.11
2018-05-02T20:12:23.052Z,100928.98
2018-05-02T20:14:48.792Z,100925.34
2018-05-02T20:17:14.533Z,100928.23
2018-05-02T20:19:40.258Z,100925.44
2018-05-02T20:22:06.003Z,100915.75
2018-05-02T20:24:31.740Z,100918.41
2018-05-02T20:26:57.475Z,100924.39
2018-05-02T20:29:23.203Z,100920.52
2018-05-02T20:31:48.935Z,100920.80
2018-05-02T20:34:14.663Z,100923.84
2018-05-02T20:36:40.407Z,100916.95
2018-05-02T20:39:06.147Z,100919.78
2018-05-02T20:41:31.879Z,100915.21
2018-05-02T20:43:57.659Z,100910.74
2018-05-02T20:46:23.432Z,100913.19
2018-05-02T20:48:49.095Z,100913.97
2018-05-02T20:51:14.829Z,100913.05
2018-05-02T20:53:40.572Z,100916.18
2018-05-02T20:56:06.301Z,100919.37
2018-05-02T20:58:32.049Z,100913.53
2018-05-02T21:00:57.787Z,100905.64
2018-05-02T21:03:23.531Z,100912.83
2018-05-02T21:05:49.260Z,100907.41
2018-05-02T21:08:14.994Z,100911.33
2018-05-02T21:10:40.724Z,100914.98
2018-05-02T21:13:06.466Z,100904.71
2018-05-02T21:15:32.197Z,100903.64
2018-05-02T21:17:57.944Z,100905.90
2018-05-02T21:20:23.667Z,100909.55
2018-05-02T21:22:49.400Z,100900.77
2018-05-02T21:25:15.187Z,100904.77
2018-05-02T21:27:40.945Z,100909.66
2018-05-02T21:30:06.742Z,100905.89
2018-05-02T21:32:32.796Z,100905.38
2018-05-02T21:34:58.523Z,100902.73
2018-05-02T21:37:24.261Z,100903.53
2018-05-02T21:39:49.984Z,100903.12
2018-05-02T21:42:15.720Z,100903.97
2018-05-02T21:44:41.444Z,100894.91
2018-05-02T21:47:07.179Z,100894.27
2018-05-02T21:49:32.893Z,100890.58
2018-05-02T21:51:58.638Z,100893.06
2018-05-02T21:54:24.356Z,100903.56
2018-05-02T21:56:50.108Z,100902.88
2018-05-02T21:59:15.838Z,100897.70
2018-05-02T22:01:41.567Z,100900.52
2018-05-02T22:04:07.416Z,100896.50
2018-05-02T22:06:33.143Z,100894.41
2018-05-02T22:08:58.890Z,100890.99
2018-05-02T22:11:24.620Z,100889.16
2018-05-02T22:13:50.366Z,100883.39
2018-05-02T22:16:16.091Z,100884.75
2018-05-02T22:18:41.816Z,100882.38
2018-05-02T22:21:07.536Z,100878.81
2018-05-02T22:23:33.271Z,100887.26
2018-05-02T22:25:59.010Z,100877.89
2018-05-02T22:28:24.749Z,100882.05
2018-05-02T22:30:50.484Z,100877.71
2018-05-02T22:33:16.215Z,100880.09
2018-05-02T22:35:41.932Z,100882.78
2018-05-02T22:38:07.665Z,100879.83
2018-05-02T22:40:33.392Z,100886.67
2018-05-02T22:42:59.124Z,100886.30
2018-05-02T22:45:24.860Z,100880.68
2018-05-02T22:47:50.599Z,100882.58
2018-05-02T22:50:16.323Z,100871.44
2018-05-02T22:52:42.054Z,100875.23
2018-05-02T22:55:07.773Z,100875.36
2018-05-02T22:57:33.508Z,100880.68
2018-05-02T22:59:59.249Z,100870.95
2018-05-02T23:02:24.976Z,100866.48
2018-05-02T23:04:50.711Z,100870.89
2018-05-02T23:07:16.437Z,100874.23
2018-05-02T23:09:42.166Z,100872.95
2018-05-02T23:12:07.887Z,100868.14
2018-05-02T23:14:33.613Z,100863.61
2018-05-02T23:16:59.327Z,100853.69
2018-05-02T23:19:25.068Z,100853.52
2018-05-02T23:21:50.776Z,100850.31
2018-05-02T23:24:16.504Z,100849.97
2018-05-02T23:26:42.237Z,100844.47
2018-05-02T23:29:07.974Z,100843.76
2018-05-02T23:31:33.711Z,100844.27
2018-05-02T23:33:59.435Z,100838.58
2018-05-02T23:36:25.149Z,100837.60
2018-05-02T23:38:50.885Z,100837.07
2018-05-02T23:41:16.669Z,100843.76
2018-05-02T23:43:42.361Z,100837.45
2018-05-02T23:46:08.093Z,100835.28
2018-05-02T23:48:33.820Z,100836.91
2018-05-02T23:50:59.577Z,100835.81
2018-05-02T23:53:25.312Z,100832.07
2018-05-02T23:55:51.033Z,100824.16
2018-05-02T23:58:16.772Z,100818.97
